createdAt,value
2024-04-26T00:00:20.470Z,91.80
2024-04-26T00:02:50.598Z,92.41
2024-04-26T00:05:20.472Z,93.76
2024-04-26T00:07:50.326Z,94.57
2024-04-26T00:10:20.437Z,93.30
2024-04-26T00:12:50.555Z,91.93
2024-04-26T00:15:25.900Z,92.60
2024-04-26T00:17:55.778Z,92.66
2024-04-26T00:20:25.640Z,92.59
2024-04-26T00:22:55.460Z,94.21
2024-04-26T00:25:25.218Z,93.76
2024-04-26T00:27:54.928Z,92.93
2024-04-26T00:30:27.308Z,92.74
2024-04-26T00:32:57.294Z,92.24
2024-04-26T00:35:27.201Z,92.94
2024-04-26T00:37:57.317Z,92.09
2024-04-26T00:40:28.054Z,93.60
2024-04-26T00:42:57.904Z,92.77
2024-04-26T00:45:30.352Z,93.09
2024-04-26T00:48:00.345Z,91.76
2024-04-26T00:50:30.583Z,91.92
2024-04-26T00:53:00.379Z,92.69
2024-04-26T00:55:30.359Z,91.45
2024-04-26T00:58:00.863Z,90.72
2024-04-26T01:00:33.347Z,90.36
2024-04-26T01:03:03.258Z,90.77
2024-04-26T01:05:33.267Z,89.84
2024-04-26T01:08:03.310Z,89.62
2024-04-26T01:10:33.576Z,89.97
2024-04-26T01:13:07.836Z,88.99
2024-04-26T01:15:40.259Z,88.18
2024-04-26T01:18:11.110Z,88.76
2024-04-26T01:20:40.979Z,88.18
2024-04-26T01:23:10.819Z,89.08
2024-04-26T01:25:43.150Z,88.10
2024-04-26T01:28:12.914Z,89.20
2024-04-26T01:30:42.744Z,89.55
2024-04-26T01:33:12.518Z,88.33
2024-04-26T01:35:42.383Z,88.52
2024-04-26T01:38:12.302Z,89.29
2024-04-26T01:40:44.735Z,89.04
2024-04-26T01:43:14.678Z,88.65
2024-04-26T01:45:44.360Z,88.68
2024-04-26T01:48:14.301Z,88.22
2024-04-26T01:50:44.359Z,88.37
2024-04-26T01:53:14.080Z,87.91
2024-04-26T01:55:43.941Z,87.95
2024-04-26T01:58:13.695Z,88.97
2024-04-26T02:00:43.572Z,89.73
2024-04-26T02:03:10.720Z,88.67
2024-04-26T02:05:40.620Z,89.34
2024-04-26T02:08:08.008Z,89.16
2024-04-26T02:10:37.764Z,89.78
2024-04-26T02:13:07.553Z,89.45
2024-04-26T02:15:37.310Z,89.14
2024-04-26T02:18:04.820Z,90.58
2024-04-26T02:20:34.793Z,91.17
2024-04-26T02:23:04.522Z,89.68
2024-04-26T02:25:34.322Z,90.21
2024-04-26T02:28:01.764Z,90.28
2024-04-26T02:30:34.174Z,90.43
2024-04-26T02:33:04.115Z,90.47
2024-04-26T02:35:34.135Z,90.33
2024-04-26T02:38:04.012Z,90.89
2024-04-26T02:40:33.841Z,90.13
2024-04-26T02:43:05.058Z,90.37
2024-04-26T02:45:37.564Z,88.92
2024-04-26T02:48:08.250Z,89.45
2024-04-26T02:50:38.093Z,88.74
2024-04-26T02:53:09.597Z,89.67
2024-04-26T02:55:39.313Z,90.22
2024-04-26T02:58:09.108Z,90.16
2024-04-26T03:00:41.600Z,90.56
2024-04-26T03:03:11.558Z,90.50
2024-04-26T03:05:41.345Z,91.03
2024-04-26T03:08:11.802Z,89.69
2024-04-26T03:10:41.648Z,89.93
2024-04-26T03:13:11.560Z,89.69
2024-04-26T03:15:44.024Z,90.15
2024-04-26T03:18:13.891Z,89.94
2024-04-26T03:20:43.941Z,90.73
2024-04-26T03:23:13.664Z,90.87
2024-04-26T03:25:43.395Z,92.03
2024-04-26T03:28:14.993Z,92.99
2024-04-26T03:30:47.378Z,93.28
2024-04-26T03:33:18.108Z,91.88
2024-04-26T03:35:48.015Z,92.06
2024-04-26T03:38:18.299Z,92.09
2024-04-26T03:40:47.821Z,91.75
2024-04-26T03:43:18.805Z,91.69
2024-04-26T03:45:51.158Z,90.60
2024-04-26T03:48:21.089Z,90.49
2024-04-26T03:50:51.097Z,90.56
2024-04-26T03:53:20.931Z,90.12
2024-04-26T03:55:50.597Z,90.27
2024-04-26T03:58:20.372Z,89.97
2024-04-26T04:00:53.540Z,88.66
2024-04-26T04:03:24.231Z,88.90
2024-04-26T04:05:54.180Z,87.55
2024-04-26T04:08:24.290Z,86.95
2024-04-26T04:10:53.933Z,88.90
2024-04-26T04:13:24.002Z,88.62
2024-04-26T04:15:56.501Z,87.11
2024-04-26T04:18:28.726Z,86.23
2024-04-26T04:20:58.625Z,86.65
2024-04-26T04:23:28.464Z,88.23
2024-04-26T04:25:58.163Z,86.51
2024-04-26T04:28:29.000Z,85.88
2024-04-26T04:31:01.520Z,86.56
2024-04-26T04:33:31.574Z,87.23
2024-04-26T04:36:01.744Z,84.88
2024-04-26T04:38:31.504Z,86.22
2024-04-26T04:41:01.587Z,83.40
2024-04-26T04:43:31.459Z,85.12
2024-04-26T04:46:04.571Z,83.97
2024-04-26T04:48:34.636Z,84.69
2024-04-26T04:51:04.606Z,84.77
2024-04-26T04:53:36.394Z,85.44
2024-04-26T04:56:08.182Z,85.11
2024-04-26T04:58:37.905Z,85.76
2024-04-26T05:01:10.436Z,85.91
2024-04-26T05:03:40.411Z,85.95
2024-04-26T05:06:10.358Z,84.22
2024-04-26T05:08:40.152Z,85.53
2024-04-26T05:11:10.774Z,85.39
2024-04-26T05:13:40.534Z,85.03
2024-04-26T05:16:13.294Z,83.69
2024-04-26T05:18:43.258Z,84.31
2024-04-26T05:21:14.353Z,85.18
2024-04-26T05:23:44.348Z,84.58
2024-04-26T05:26:14.140Z,84.22
2024-04-26T05:28:44.089Z,85.00
2024-04-26T05:31:16.480Z,86.11
2024-04-26T05:33:46.532Z,85.73
2024-04-26T05:36:16.681Z,86.03
2024-04-26T05:38:46.505Z,86.05
2024-04-26T05:41:16.665Z,85.26
2024-04-26T05:43:46.385Z,85.08
2024-04-26T05:46:18.728Z,86.28
2024-04-26T05:48:48.579Z,85.38
2024-04-26T05:51:18.771Z,85.66
2024-04-26T05:53:50.275Z,85.51
2024-04-26T05:56:20.251Z,84.47
2024-04-26T05:58:51.605Z,85.30
2024-04-26T06:01:25.395Z,84.48
2024-04-26T06:03:55.257Z,83.56
2024-04-26T06:06:25.905Z,83.46
2024-04-26T06:08:56.035Z,83.57
2024-04-26T06:11:26.089Z,82.14
2024-04-26T06:13:55.980Z,84.80
2024-04-26T06:16:28.335Z,83.58
2024-04-26T06:18:59.172Z,83.19
2024-04-26T06:21:29.338Z,84.45
2024-04-26T06:23:59.063Z,83.58
2024-04-26T06:26:28.886Z,82.01
2024-04-26T06:28:58.615Z,81.11
2024-04-26T06:31:30.980Z,82.26
2024-04-26T06:34:00.762Z,82.06
2024-04-26T06:36:30.787Z,80.53
2024-04-26T06:39:00.815Z,81.27
2024-04-26T06:41:30.693Z,78.57
2024-04-26T06:44:11.512Z,81.97
2024-04-26T06:46:50.624Z,80.96
2024-04-26T06:49:21.553Z,81.85
2024-04-26T06:51:51.474Z,81.28
2024-04-26T06:54:21.338Z,80.55
2024-04-26T06:56:51.330Z,79.45
2024-04-26T06:59:20.996Z,81.70
2024-04-26T07:01:53.674Z,78.94
2024-04-26T07:04:23.883Z,78.45
2024-04-26T07:06:53.723Z,79.39
2024-04-26T07:09:23.697Z,80.17
2024-04-26T07:11:54.684Z,80.47
2024-04-26T07:14:24.749Z,76.26
2024-04-26T07:16:57.139Z,77.95
2024-04-26T07:19:28.655Z,77.78
2024-04-26T07:22:00.913Z,78.66
2024-04-26T07:24:31.909Z,78.33
2024-04-26T07:27:02.126Z,77.53
2024-04-26T07:29:32.024Z,76.82
2024-04-26T07:32:04.561Z,76.62
2024-04-26T07:34:34.550Z,77.80
2024-04-26T07:37:04.605Z,77.52
2024-04-26T07:39:34.559Z,79.29
2024-04-26T07:42:06.501Z,77.61
2024-04-26T07:44:36.620Z,76.22
2024-04-26T07:47:14.381Z,75.11
2024-04-26T07:49:44.400Z,74.53
2024-04-26T07:52:14.241Z,74.17
2024-04-26T07:54:44.702Z,75.42
2024-04-26T07:57:14.664Z,73.29
2024-04-26T07:59:44.612Z,76.80
2024-04-26T08:02:17.223Z,74.15
2024-04-26T08:04:47.250Z,72.34
2024-04-26T08:07:17.216Z,74.79
2024-04-26T08:09:46.991Z,74.50
2024-04-26T08:12:17.042Z,73.42
2024-04-26T08:14:48.338Z,72.38
2024-04-26T08:17:20.905Z,74.82
2024-04-26T08:19:50.727Z,75.62
2024-04-26T08:22:20.433Z,71.88
2024-04-26T08:24:55.919Z,73.34
2024-04-26T08:27:28.716Z,73.39
2024-04-26T08:29:58.420Z,73.28
2024-04-26T08:32:31.366Z,75.77
2024-04-26T08:35:01.321Z,73.60
2024-04-26T08:37:31.317Z,75.96
2024-04-26T08:40:02.261Z,74.43
2024-04-26T08:42:32.598Z,74.56
2024-04-26T08:45:02.422Z,72.37
2024-04-26T08:47:36.301Z,72.72
2024-04-26T08:50:08.553Z,73.36
2024-04-26T08:52:39.726Z,72.73
2024-04-26T08:55:09.708Z,73.00
2024-04-26T08:57:40.254Z,71.80
2024-04-26T09:00:13.879Z,71.44
2024-04-26T09:02:46.613Z,68.41
2024-04-26T09:05:16.938Z,67.58
2024-04-26T09:07:46.538Z,69.32
2024-04-26T09:10:16.247Z,69.30
2024-04-26T09:12:52.493Z,69.02
2024-04-26T09:15:30.442Z,70.63
2024-04-26T09:18:03.504Z,67.45
2024-04-26T09:20:37.952Z,67.62
2024-04-26T09:23:10.897Z,69.43
2024-04-26T09:25:43.923Z,68.75
2024-04-26T09:28:13.816Z,68.81
2024-04-26T09:30:48.221Z,65.43
2024-04-26T09:33:23.583Z,66.91
2024-04-26T09:35:54.582Z,63.37
2024-04-26T09:38:26.005Z,65.30
2024-04-26T09:40:56.711Z,64.62
2024-04-26T09:43:28.138Z,64.89
2024-04-26T09:46:02.577Z,69.64
2024-04-26T09:48:35.500Z,63.19
2024-04-26T09:51:07.710Z,64.39
2024-04-26T09:53:42.779Z,66.98
2024-04-26T09:56:12.769Z,65.91
2024-04-26T09:58:42.967Z,63.80
2024-04-26T10:01:13.841Z,62.79
2024-04-26T10:03:49.088Z,62.85
2024-04-26T10:06:19.473Z,59.54
2024-04-26T10:08:51.020Z,62.27
2024-04-26T10:11:28.767Z,64.31
2024-04-26T10:14:02.772Z,66.52
2024-04-26T10:16:36.753Z,63.53
2024-04-26T10:19:17.820Z,63.56
2024-04-26T10:21:47.992Z,62.83
2024-04-26T10:24:17.790Z,64.60
2024-04-26T10:26:55.795Z,64.26
2024-04-26T10:29:29.627Z,63.09
2024-04-26T10:32:06.991Z,64.84
2024-04-26T10:34:41.007Z,66.05
2024-04-26T10:37:20.107Z,67.80
2024-04-26T10:39:50.065Z,64.87
2024-04-26T10:42:23.159Z,64.98
2024-04-26T10:44:52.990Z,70.90
2024-04-26T10:47:24.102Z,65.86
2024-04-26T10:50:05.885Z,66.98
2024-04-26T10:52:35.669Z,66.81
2024-04-26T10:55:05.603Z,67.32
2024-04-26T10:57:35.960Z,68.60
2024-04-26T11:00:07.012Z,67.69
2024-04-26T11:02:37.032Z,67.78
2024-04-26T11:05:12.392Z,71.35
2024-04-26T11:07:42.864Z,69.26
2024-04-26T11:10:14.654Z,72.83
2024-04-26T11:12:44.860Z,72.08
2024-04-26T11:15:14.759Z,76.63
2024-04-26T11:17:44.770Z,78.65
2024-04-26T11:20:17.282Z,81.29
2024-04-26T11:22:47.134Z,82.50
2024-04-26T11:25:17.197Z,84.46
2024-04-26T11:27:47.972Z,86.31
2024-04-26T11:30:18.029Z,85.22
2024-04-26T11:32:47.873Z,85.23
2024-04-26T11:35:20.520Z,87.72
2024-04-26T11:37:50.772Z,87.65
2024-04-26T11:40:20.710Z,88.16
2024-04-26T11:42:50.476Z,87.61
2024-04-26T11:45:20.341Z,87.03
2024-04-26T11:47:54.052Z,89.69
2024-04-26T11:50:26.570Z,90.95
2024-04-26T11:52:58.835Z,89.92
2024-04-26T11:55:29.518Z,90.19
2024-04-26T11:57:59.268Z,89.55
2024-04-26T12:00:28.985Z,88.69
2024-04-26T12:02:58.810Z,89.83
2024-04-26T12:05:31.868Z,89.65
2024-04-26T12:08:01.709Z,88.67
2024-04-26T12:10:31.358Z,88.20
2024-04-26T12:13:01.419Z,89.31
2024-04-26T12:15:31.259Z,89.09
2024-04-26T12:18:01.142Z,89.28
2024-04-26T12:20:34.452Z,92.22
2024-04-26T12:23:04.510Z,92.04
2024-04-26T12:25:35.648Z,91.83
2024-04-26T12:28:06.834Z,90.14
2024-04-26T12:30:37.492Z,94.34
2024-04-26T12:33:08.882Z,94.75
2024-04-26T12:35:42.244Z,91.32
2024-04-26T12:38:12.114Z,91.10
2024-04-26T12:40:41.924Z,92.57
2024-04-26T12:43:11.908Z,91.61
2024-04-26T12:45:41.607Z,92.66
2024-04-26T12:48:11.737Z,89.09
2024-04-26T12:50:44.891Z,92.11
2024-04-26T12:53:14.649Z,90.29
2024-04-26T12:55:44.349Z,88.63
2024-04-26T12:58:14.021Z,89.11
2024-04-26T13:00:44.289Z,88.56
2024-04-26T13:03:15.639Z,88.02
2024-04-26T13:05:48.086Z,90.95
2024-04-26T13:08:18.033Z,90.38
2024-04-26T13:10:47.902Z,90.91
2024-04-26T13:13:17.784Z,86.96
2024-04-26T13:15:47.671Z,86.55
2024-04-26T13:18:17.629Z,87.04
2024-04-26T13:20:50.324Z,87.56
2024-04-26T13:23:20.174Z,86.08
2024-04-26T13:25:50.008Z,85.47
2024-04-26T13:28:19.758Z,86.16
2024-04-26T13:31:16.298Z,85.72
2024-04-26T13:33:46.506Z,84.26
2024-04-26T13:36:19.250Z,85.34
2024-04-26T13:38:49.207Z,85.52
2024-04-26T13:41:19.351Z,86.38
2024-04-26T13:43:49.078Z,85.31
2024-04-26T13:46:18.788Z,84.79
2024-04-26T13:48:48.867Z,86.98
2024-04-26T13:51:22.004Z,85.99
2024-04-26T13:53:54.522Z,85.63
2024-04-26T13:56:25.198Z,83.80
2024-04-26T13:58:54.985Z,85.07
2024-04-26T14:01:24.871Z,83.38
2024-04-26T14:03:54.882Z,83.28
2024-04-26T14:06:28.761Z,83.83
2024-04-26T14:08:58.704Z,85.50
2024-04-26T14:11:28.793Z,86.38
2024-04-26T14:13:58.781Z,85.95
2024-04-26T14:16:28.437Z,86.87
2024-04-26T14:18:58.344Z,85.84
2024-04-26T14:21:35.234Z,83.93
2024-04-26T14:24:05.078Z,85.43
2024-04-26T14:26:34.846Z,84.07
2024-04-26T14:29:04.657Z,85.04
2024-04-26T14:31:34.382Z,83.48
2024-04-26T14:34:04.825Z,87.05
2024-04-26T14:36:37.806Z,89.45
2024-04-26T14:39:07.482Z,87.71
2024-04-26T14:41:38.157Z,86.42
2024-04-26T14:44:08.311Z,82.73
2024-04-26T14:46:38.474Z,82.67
2024-04-26T14:49:10.439Z,83.38
2024-04-26T14:51:42.821Z,83.31
2024-04-26T14:54:12.674Z,82.96
2024-04-26T14:56:43.683Z,83.48
2024-04-26T14:59:13.570Z,83.74
2024-04-26T15:01:43.352Z,84.98
2024-04-26T15:04:14.167Z,85.30
2024-04-26T15:06:47.720Z,84.35
2024-04-26T15:09:17.545Z,84.31
2024-04-26T15:11:47.393Z,82.83
2024-04-26T15:14:17.664Z,84.64
2024-04-26T15:16:47.516Z,83.24
2024-04-26T15:19:17.684Z,82.46
2024-04-26T15:21:50.071Z,83.56
2024-04-26T15:24:20.185Z,85.30
2024-04-26T15:26:50.459Z,83.96
2024-04-26T15:29:21.576Z,84.74
2024-04-26T15:31:51.369Z,84.97
2024-04-26T15:34:21.076Z,87.76
2024-04-26T15:36:53.613Z,85.63
2024-04-26T15:39:23.368Z,84.78
2024-04-26T15:41:53.517Z,85.10
2024-04-26T15:44:23.093Z,87.39
2024-04-26T15:46:52.888Z,85.90
2024-04-26T15:49:23.037Z,84.34
2024-04-26T15:51:55.399Z,86.00
2024-04-26T15:54:25.090Z,85.51
2024-04-26T15:56:54.784Z,85.10
2024-04-26T15:59:24.476Z,83.97
2024-04-26T16:01:54.283Z,82.73
2024-04-26T16:04:24.264Z,83.90
2024-04-26T16:06:56.694Z,83.25
2024-04-26T16:09:26.843Z,84.53
2024-04-26T16:11:56.613Z,85.05
2024-04-26T16:14:26.394Z,85.24
2024-04-26T16:16:56.196Z,84.20
2024-04-26T16:19:26.023Z,85.43
2024-04-26T16:22:00.691Z,85.58
2024-04-26T16:24:30.474Z,85.47
2024-04-26T16:27:00.479Z,85.87
2024-04-26T16:29:30.498Z,85.67
2024-04-26T16:32:01.267Z,86.78
2024-04-26T16:34:31.148Z,88.48
2024-04-26T16:37:03.592Z,87.04
2024-04-26T16:39:33.433Z,87.09
2024-04-26T16:42:03.202Z,86.93
2024-04-26T16:44:33.032Z,88.01
2024-04-26T16:47:03.033Z,87.39
2024-04-26T16:49:33.769Z,88.30
2024-04-26T16:52:06.134Z,87.32
2024-04-26T16:54:36.046Z,87.48
2024-04-26T16:57:05.822Z,87.41
2024-04-26T16:59:35.494Z,88.75
2024-04-26T17:02:08.059Z,89.03
2024-04-26T17:04:38.057Z,89.54
2024-04-26T17:07:11.798Z,89.69
2024-04-26T17:09:42.926Z,89.56
2024-04-26T17:12:12.946Z,90.57
2024-04-26T17:14:42.796Z,91.61
2024-04-26T17:17:12.740Z,91.80
2024-04-26T17:19:42.443Z,92.29
2024-04-26T17:22:15.028Z,93.84
2024-04-26T17:24:46.492Z,94.64
2024-04-26T17:27:16.989Z,94.54
2024-04-26T17:29:46.715Z,93.06
2024-04-26T17:32:16.722Z,92.74
2024-04-26T17:34:46.482Z,93.98
2024-04-26T17:37:19.112Z,93.12
2024-04-26T17:39:59.590Z,94.31
2024-04-26T17:42:29.469Z,96.97
2024-04-26T17:44:59.274Z,93.49
2024-04-26T17:47:29.096Z,93.43
2024-04-26T17:49:59.913Z,94.17
2024-04-26T17:52:32.390Z,95.21
2024-04-26T17:55:02.362Z,96.40
2024-04-26T17:57:32.112Z,99.31
2024-04-26T18:00:05.069Z,100.00
2024-04-26T18:02:42.767Z,100.00
2024-04-26T18:05:12.699Z,100.00
2024-04-26T18:07:47.495Z,100.00
2024-04-26T18:10:17.516Z,100.00
2024-04-26T18:12:47.388Z,100.00
2024-04-26T18:15:19.125Z,100.00
2024-04-26T18:17:48.997Z,100.00
2024-04-26T18:20:18.948Z,100.00
2024-04-26T18:22:51.451Z,100.00
2024-04-26T18:25:21.123Z,100.00
2024-04-26T18:27:50.830Z,100.00
2024-04-26T18:30:20.590Z,100.00
2024-04-26T18:32:50.577Z,100.00
2024-04-26T18:35:20.422Z,100.00
2024-04-26T18:37:52.847Z,100.00
2024-04-26T18:40:25.074Z,100.00
2024-04-26T18:42:55.311Z,100.00
2024-04-26T18:45:25.122Z,100.00
2024-04-26T18:47:54.933Z,100.00
2024-04-26T18:50:25.107Z,100.00
2024-04-26T18:52:58.584Z,100.00
2024-04-26T18:55:28.365Z,100.00
2024-04-26T18:57:58.411Z,100.00
2024-04-26T19:00:28.153Z,100.00
2024-04-26T19:02:58.032Z,100.00
2024-04-26T19:05:28.509Z,100.00
2024-04-26T19:08:01.094Z,100.00
2024-04-26T19:10:34.163Z,100.00
2024-04-26T19:13:04.968Z,100.00
2024-04-26T19:15:34.836Z,100.00
2024-04-26T19:18:04.607Z,100.00
2024-04-26T19:20:34.490Z,100.00
2024-04-26T19:23:07.211Z,100.00
2024-04-26T19:25:37.475Z,100.00
2024-04-26T19:28:08.634Z,100.00
2024-04-26T19:30:38.433Z,100.00
2024-04-26T19:33:11.348Z,100.00
2024-04-26T19:35:42.969Z,100.00
2024-04-26T19:38:18.621Z,100.00
2024-04-26T19:40:49.310Z,100.00
2024-04-26T19:43:19.142Z,100.00
2024-04-26T19:45:49.011Z,100.00
2024-04-26T19:48:18.892Z,100.00
2024-04-26T19:50:52.213Z,100.00
2024-04-26T19:53:40.481Z,100.00
2024-04-26T19:56:20.129Z,100.00
2024-04-26T19:58:50.521Z,100.00
2024-04-26T20:01:20.475Z,100.00
2024-04-26T20:03:50.436Z,100.00
2024-04-26T20:06:23.004Z,100.00
2024-04-26T20:08:55.406Z,100.00
2024-04-26T20:11:26.366Z,100.00
2024-04-26T20:13:56.405Z,100.00
2024-04-26T20:16:26.288Z,100.00
2024-04-26T20:18:56.969Z,100.00
2024-04-26T20:21:29.377Z,100.00
2024-04-26T20:24:01.819Z,100.00
2024-04-26T20:26:31.578Z,100.00
2024-04-26T20:29:01.387Z,100.00
2024-04-26T20:31:34.564Z,100.00
2024-04-26T20:34:07.178Z,100.00
2024-04-26T20:36:41.388Z,100.00
2024-04-26T20:39:14.203Z,100.00
2024-04-26T20:41:44.109Z,100.00
2024-04-26T20:44:13.844Z,100.00
2024-04-26T20:46:43.601Z,100.00
2024-04-26T20:49:15.794Z,100.00
2024-04-26T20:51:45.784Z,100.00
2024-04-26T20:54:18.184Z,100.00
2024-04-26T20:56:47.899Z,100.00
2024-04-26T20:59:17.667Z,100.00
2024-04-26T21:01:47.511Z,100.00
2024-04-26T21:04:17.314Z,100.00
2024-04-26T21:06:47.004Z,100.00
2024-04-26T21:09:19.360Z,100.00
2024-04-26T21:11:49.107Z,100.00
2024-04-26T21:14:19.446Z,100.00
2024-04-26T21:16:49.261Z,100.00
2024-04-26T21:19:19.002Z,100.00
2024-04-26T21:21:49.251Z,100.00
2024-04-26T21:24:21.583Z,100.00
2024-04-26T21:26:51.381Z,100.00
2024-04-26T21:29:21.042Z,100.00
2024-04-26T21:31:50.832Z,100.00
2024-04-26T21:34:20.619Z,100.00
2024-04-26T21:36:50.336Z,100.00
2024-04-26T21:39:23.081Z,100.00
2024-04-26T21:41:52.835Z,100.00
2024-04-26T21:44:23.287Z,100.00
2024-04-26T21:46:53.916Z,100.00
2024-04-26T21:49:24.211Z,100.00
2024-04-26T21:51:53.828Z,100.00
2024-04-26T21:54:26.156Z,100.00
2024-04-26T21:56:55.958Z,100.00
2024-04-26T21:59:25.863Z,100.00
2024-04-26T22:01:55.788Z,100.00
2024-04-26T22:04:25.600Z,100.00
2024-04-26T22:06:55.316Z,100.00
2024-04-26T22:09:27.817Z,100.00
2024-04-26T22:12:02.831Z,100.00
2024-04-26T22:14:33.096Z,100.00
2024-04-26T22:17:02.946Z,100.00
2024-04-26T22:19:32.850Z,100.00
2024-04-26T22:22:02.685Z,100.00
2024-04-26T22:24:35.114Z,100.00
2024-04-26T22:27:04.784Z,100.00
2024-04-26T22:29:34.471Z,100.00
2024-04-26T22:32:07.438Z,100.00
2024-04-26T22:34:39.144Z,100.00
2024-04-26T22:37:08.935Z,100.00
2024-04-26T22:39:41.799Z,100.00
2024-04-26T22:42:11.702Z,100.00
2024-04-26T22:44:41.537Z,100.00
2024-04-26T22:47:11.351Z,100.00
2024-04-26T22:49:41.152Z,100.00
2024-04-26T22:52:10.850Z,100.00
2024-04-26T22:54:43.269Z,100.00
2024-04-26T22:57:12.913Z,100.00
2024-04-26T22:59:42.661Z,100.00
2024-04-26T23:02:12.695Z,100.00
2024-04-26T23:04:42.551Z,100.00
2024-04-26T23:07:12.268Z,100.00
2024-04-26T23:09:44.591Z,100.00
2024-04-26T23:12:14.407Z,100.00
2024-04-26T23:14:44.405Z,100.00
2024-04-26T23:17:14.137Z,100.00
2024-04-26T23:19:43.959Z,100.00
2024-04-26T23:22:16.960Z,100.00
2024-04-26T23:24:49.556Z,100.00
2024-04-26T23:27:19.583Z,100.00
2024-04-26T23:29:51.269Z,100.00
2024-04-26T23:32:22.174Z,100.00
2024-04-26T23:34:52.050Z,100.00
2024-04-26T23:37:21.786Z,100.00
2024-04-26T23:39:54.149Z,100.00
2024-04-26T23:42:23.909Z,100.00
2024-04-26T23:44:53.629Z,100.00
2024-04-26T23:47:23.501Z,100.00
2024-04-26T23:49:53.516Z,100.00
2024-04-26T23:52:23.277Z,100.00
2024-04-26T23:54:55.630Z,100.00
2024-04-26T23:57:25.422Z,100.00
2024-04-26T23:59:55.147Z,100.00
